sensor_id;sensor_type;location;lat;lon;timestamp;P1;durP1;ratioP1;P2;durP2;ratioP2
58372;SDS011;44177;43.356;27.672;2023-05-24T00:01:17;18.15;;;12.48;;
58372;SDS011;44177;43.356;27.672;2023-05-24T00:03:52;16.27;;;12.10;;
58372;SDS011;44177;43.356;27.672;2023-05-24T00:06:22;16.33;;;11.80;;
58372;SDS011;44177;43.356;27.672;2023-05-24T00:08:50;21.80;;;12.07;;
58372;SDS011;44177;43.356;27.672;2023-05-24T00:11:16;19.42;;;11.95;;
58372;SDS011;44177;43.356;27.672;2023-05-24T00:13:41;21.30;;;12.23;;
58372;SDS011;44177;43.356;27.672;2023-05-24T00:16:07;17.27;;;11.38;;
58372;SDS011;44177;43.356;27.672;2023-05-24T00:18:32;15.55;;;10.50;;
58372;SDS011;44177;43.356;27.672;2023-05-24T00:20:58;15.68;;;10.75;;
58372;SDS011;44177;43.356;27.672;2023-05-24T00:23:23;14.43;;;10.25;;
58372;SDS011;44177;43.356;27.672;2023-05-24T00:25:52;17.83;;;10.80;;
58372;SDS011;44177;43.356;27.672;2023-05-24T00:28:18;16.67;;;10.65;;
58372;SDS011;44177;43.356;27.672;2023-05-24T00:30:43;18.40;;;11.18;;
58372;SDS011;44177;43.356;27.672;2023-05-24T00:33:09;17.98;;;11.27;;
58372;SDS011;44177;43.356;27.672;2023-05-24T00:35:34;18.58;;;11.98;;
58372;SDS011;44177;43.356;27.672;2023-05-24T00:38:00;20.55;;;12.18;;
58372;SDS011;44177;43.356;27.672;2023-05-24T00:40:25;16.63;;;10.77;;
58372;SDS011;44177;43.356;27.672;2023-05-24T00:42:51;18.77;;;11.43;;
58372;SDS011;44177;43.356;27.672;2023-05-24T00:45:16;16.23;;;11.13;;
58372;SDS011;44177;43.356;27.672;2023-05-24T00:47:42;17.65;;;12.25;;
58372;SDS011;44177;43.356;27.672;2023-05-24T00:50:08;16.98;;;10.93;;
58372;SDS011;44177;43.356;27.672;2023-05-24T00:52:37;19.35;;;11.35;;
58372;SDS011;44177;43.356;27.672;2023-05-24T00:55:05;17.95;;;11.73;;
58372;SDS011;44177;43.356;27.672;2023-05-24T00:57:31;20.13;;;11.80;;
58372;SDS011;44177;43.356;27.672;2023-05-24T00:59:57;17.30;;;11.15;;
58372;SDS011;44177;43.356;27.672;2023-05-24T01:02:24;18.45;;;11.13;;
58372;SDS011;44177;43.356;27.672;2023-05-24T01:04:50;17.92;;;9.95;;
58372;SDS011;44177;43.356;27.672;2023-05-24T01:18:16;17.92;;;10.52;;
58372;SDS011;44177;43.356;27.672;2023-05-24T01:20:58;18.52;;;10.85;;
58372;SDS011;44177;43.356;27.672;2023-05-24T01:23:59;24.75;;;13.23;;
58372;SDS011;44177;43.356;27.672;2023-05-24T01:29:33;15.98;;;10.00;;
58372;SDS011;44177;43.356;27.672;2023-05-24T01:32:00;14.15;;;10.27;;
58372;SDS011;44177;43.356;27.672;2023-05-24T01:34:27;13.38;;;9.95;;
58372;SDS011;44177;43.356;27.672;2023-05-24T01:36:52;18.00;;;11.35;;
58372;SDS011;44177;43.356;27.672;2023-05-24T01:39:19;19.45;;;10.82;;
58372;SDS011;44177;43.356;27.672;2023-05-24T01:44:42;16.92;;;10.10;;
58372;SDS011;44177;43.356;27.672;2023-05-24T01:49:55;15.48;;;10.93;;
58372;SDS011;44177;43.356;27.672;2023-05-24T01:52:26;16.55;;;9.77;;
58372;SDS011;44177;43.356;27.672;2023-05-24T01:54:55;19.05;;;11.05;;
58372;SDS011;44177;43.356;27.672;2023-05-24T01:57:22;23.83;;;11.60;;
58372;SDS011;44177;43.356;27.672;2023-05-24T01:59:50;23.95;;;14.00;;
58372;SDS011;44177;43.356;27.672;2023-05-24T02:02:17;23.42;;;12.93;;
58372;SDS011;44177;43.356;27.672;2023-05-24T02:04:43;17.90;;;11.05;;
58372;SDS011;44177;43.356;27.672;2023-05-24T02:07:08;21.88;;;12.52;;
58372;SDS011;44177;43.356;27.672;2023-05-24T02:09:34;16.17;;;11.52;;
58372;SDS011;44177;43.356;27.672;2023-05-24T02:12:00;17.95;;;11.38;;
58372;SDS011;44177;43.356;27.672;2023-05-24T02:14:26;17.08;;;11.60;;
58372;SDS011;44177;43.356;27.672;2023-05-24T02:16:51;18.40;;;11.80;;
58372;SDS011;44177;43.356;27.672;2023-05-24T02:19:17;22.60;;;12.38;;
58372;SDS011;44177;43.356;27.672;2023-05-24T02:21:42;20.20;;;11.38;;
58372;SDS011;44177;43.356;27.672;2023-05-24T02:24:08;21.90;;;11.68;;
58372;SDS011;44177;43.356;27.672;2023-05-24T02:26:35;19.42;;;11.00;;
58372;SDS011;44177;43.356;27.672;2023-05-24T02:29:01;15.07;;;11.07;;
58372;SDS011;44177;43.356;27.672;2023-05-24T02:31:27;20.75;;;12.50;;
58372;SDS011;44177;43.356;27.672;2023-05-24T02:33:57;19.13;;;11.73;;
58372;SDS011;44177;43.356;27.672;2023-05-24T02:36:23;18.75;;;11.93;;
58372;SDS011;44177;43.356;27.672;2023-05-24T02:38:49;19.55;;;12.20;;
58372;SDS011;44177;43.356;27.672;2023-05-24T02:41:15;19.48;;;11.63;;
58372;SDS011;44177;43.356;27.672;2023-05-24T02:43:45;17.63;;;11.43;;
58372;SDS011;44177;43.356;27.672;2023-05-24T02:46:11;22.02;;;10.85;;
58372;SDS011;44177;43.356;27.672;2023-05-24T02:48:38;15.98;;;11.50;;
58372;SDS011;44177;43.356;27.672;2023-05-24T02:51:03;17.90;;;10.55;;
58372;SDS011;44177;43.356;27.672;2023-05-24T02:53:29;15.35;;;10.30;;
58372;SDS011;44177;43.356;27.672;2023-05-24T02:55:58;15.48;;;10.35;;
58372;SDS011;44177;43.356;27.672;2023-05-24T02:58:24;17.50;;;10.60;;
58372;SDS011;44177;43.356;27.672;2023-05-24T03:00:53;16.88;;;12.20;;
58372;SDS011;44177;43.356;27.672;2023-05-24T03:03:19;16.10;;;11.75;;
58372;SDS011;44177;43.356;27.672;2023-05-24T03:05:44;19.02;;;11.60;;
58372;SDS011;44177;43.356;27.672;2023-05-24T03:08:10;15.85;;;11.57;;
58372;SDS011;44177;43.356;27.672;2023-05-24T03:10:35;19.48;;;12.80;;
58372;SDS011;44177;43.356;27.672;2023-05-24T03:13:01;31.17;;;17.27;;
58372;SDS011;44177;43.356;27.672;2023-05-24T03:15:26;30.50;;;16.58;;
58372;SDS011;44177;43.356;27.672;2023-05-24T03:17:52;30.25;;;16.25;;
58372;SDS011;44177;43.356;27.672;2023-05-24T03:20:17;26.65;;;16.30;;
58372;SDS011;44177;43.356;27.672;2023-05-24T03:22:45;31.60;;;17.35;;
58372;SDS011;44177;43.356;27.672;2023-05-24T03:25:10;24.98;;;14.60;;
58372;SDS011;44177;43.356;27.672;2023-05-24T03:27:36;19.95;;;13.18;;
58372;SDS011;44177;43.356;27.672;2023-05-24T03:30:02;18.63;;;12.23;;
58372;SDS011;44177;43.356;27.672;2023-05-24T03:32:27;20.98;;;13.18;;
58372;SDS011;44177;43.356;27.672;2023-05-24T03:34:53;18.33;;;11.65;;
58372;SDS011;44177;43.356;27.672;2023-05-24T03:37:20;22.15;;;12.45;;
58372;SDS011;44177;43.356;27.672;2023-05-24T03:39:46;19.80;;;12.93;;
58372;SDS011;44177;43.356;27.672;2023-05-24T03:42:11;21.50;;;13.20;;
58372;SDS011;44177;43.356;27.672;2023-05-24T03:44:37;21.30;;;13.23;;
58372;SDS011;44177;43.356;27.672;2023-05-24T03:47:02;20.75;;;12.50;;
58372;SDS011;44177;43.356;27.672;2023-05-24T03:49:28;19.30;;;12.10;;
58372;SDS011;44177;43.356;27.672;2023-05-24T03:51:53;17.98;;;12.57;;
58372;SDS011;44177;43.356;27.672;2023-05-24T03:54:19;22.48;;;13.38;;
58372;SDS011;44177;43.356;27.672;2023-05-24T03:56:44;15.50;;;11.20;;
58372;SDS011;44177;43.356;27.672;2023-05-24T03:59:10;19.13;;;12.50;;
58372;SDS011;44177;43.356;27.672;2023-05-24T04:01:35;18.75;;;12.82;;
58372;SDS011;44177;43.356;27.672;2023-05-24T04:04:04;17.23;;;11.60;;
58372;SDS011;44177;43.356;27.672;2023-05-24T04:06:30;35.38;;;12.70;;
58372;SDS011;44177;43.356;27.672;2023-05-24T04:08:56;24.27;;;11.63;;
58372;SDS011;44177;43.356;27.672;2023-05-24T04:11:22;19.88;;;11.23;;
58372;SDS011;44177;43.356;27.672;2023-05-24T04:13:48;13.25;;;10.30;;
58372;SDS011;44177;43.356;27.672;2023-05-24T04:16:15;21.65;;;13.55;;
58372;SDS011;44177;43.356;27.672;2023-05-24T04:18:41;19.60;;;13.35;;
58372;SDS011;44177;43.356;27.672;2023-05-24T04:21:06;17.40;;;12.63;;
58372;SDS011;44177;43.356;27.672;2023-05-24T04:23:31;18.83;;;12.95;;
58372;SDS011;44177;43.356;27.672;2023-05-24T04:25:57;21.15;;;13.23;;
58372;SDS011;44177;43.356;27.672;2023-05-24T04:28:22;16.75;;;12.38;;
58372;SDS011;44177;43.356;27.672;2023-05-24T04:30:49;20.05;;;13.38;;
58372;SDS011;44177;43.356;27.672;2023-05-24T04:33:15;19.30;;;12.90;;
58372;SDS011;44177;43.356;27.672;2023-05-24T04:35:41;19.80;;;13.70;;
58372;SDS011;44177;43.356;27.672;2023-05-24T04:38:08;17.52;;;12.70;;
58372;SDS011;44177;43.356;27.672;2023-05-24T04:40:36;20.65;;;13.15;;
58372;SDS011;44177;43.356;27.672;2023-05-24T04:43:02;14.93;;;11.52;;
58372;SDS011;44177;43.356;27.672;2023-05-24T04:45:28;14.23;;;10.90;;
58372;SDS011;44177;43.356;27.672;2023-05-24T04:47:55;15.55;;;11.13;;
58372;SDS011;44177;43.356;27.672;2023-05-24T04:50:21;13.98;;;10.95;;
58372;SDS011;44177;43.356;27.672;2023-05-24T04:52:46;16.88;;;10.00;;
58372;SDS011;44177;43.356;27.672;2023-05-24T04:55:12;14.85;;;10.63;;
58372;SDS011;44177;43.356;27.672;2023-05-24T04:57:37;11.85;;;10.45;;
58372;SDS011;44177;43.356;27.672;2023-05-24T05:00:03;15.45;;;10.82;;
58372;SDS011;44177;43.356;27.672;2023-05-24T05:02:30;14.10;;;10.90;;
58372;SDS011;44177;43.356;27.672;2023-05-24T05:04:56;11.75;;;9.90;;
58372;SDS011;44177;43.356;27.672;2023-05-24T05:07:22;13.40;;;9.88;;
58372;SDS011;44177;43.356;27.672;2023-05-24T05:09:47;11.98;;;10.00;;
58372;SDS011;44177;43.356;27.672;2023-05-24T05:12:13;9.82;;;8.50;;
58372;SDS011;44177;43.356;27.672;2023-05-24T05:14:39;12.98;;;8.23;;
58372;SDS011;44177;43.356;27.672;2023-05-24T05:17:04;10.73;;;8.48;;
58372;SDS011;44177;43.356;27.672;2023-05-24T05:19:30;11.07;;;8.60;;
58372;SDS011;44177;43.356;27.672;2023-05-24T05:21:55;13.15;;;7.63;;
58372;SDS011;44177;43.356;27.672;2023-05-24T05:24:21;9.23;;;8.23;;
58372;SDS011;44177;43.356;27.672;2023-05-24T05:26:46;10.38;;;6.93;;
58372;SDS011;44177;43.356;27.672;2023-05-24T05:29:12;8.23;;;7.20;;
58372;SDS011;44177;43.356;27.672;2023-05-24T05:31:37;11.52;;;7.38;;
58372;SDS011;44177;43.356;27.672;2023-05-24T05:34:03;15.27;;;7.28;;
58372;SDS011;44177;43.356;27.672;2023-05-24T05:36:33;7.65;;;6.88;;
58372;SDS011;44177;43.356;27.672;2023-05-24T05:39:04;8.40;;;7.15;;
58372;SDS011;44177;43.356;27.672;2023-05-24T05:41:38;8.52;;;7.00;;
58372;SDS011;44177;43.356;27.672;2023-05-24T05:44:06;9.50;;;6.93;;
58372;SDS011;44177;43.356;27.672;2023-05-24T05:46:31;8.98;;;6.80;;
58372;SDS011;44177;43.356;27.672;2023-05-24T05:48:57;7.90;;;6.88;;
58372;SDS011;44177;43.356;27.672;2023-05-24T05:51:22;9.43;;;6.70;;
58372;SDS011;44177;43.356;27.672;2023-05-24T05:53:48;7.80;;;7.00;;
58372;SDS011;44177;43.356;27.672;2023-05-24T05:56:13;9.02;;;6.78;;
58372;SDS011;44177;43.356;27.672;2023-05-24T05:58:39;8.73;;;6.68;;
58372;SDS011;44177;43.356;27.672;2023-05-24T06:01:04;7.97;;;6.72;;
58372;SDS011;44177;43.356;27.672;2023-05-24T06:03:29;8.68;;;6.75;;
58372;SDS011;44177;43.356;27.672;2023-05-24T06:05:55;7.63;;;6.10;;
58372;SDS011;44177;43.356;27.672;2023-05-24T06:08:20;7.57;;;6.40;;
58372;SDS011;44177;43.356;27.672;2023-05-24T06:10:46;9.68;;;6.80;;
58372;SDS011;44177;43.356;27.672;2023-05-24T06:13:11;9.43;;;7.05;;
58372;SDS011;44177;43.356;27.672;2023-05-24T06:15:37;9.40;;;6.90;;
58372;SDS011;44177;43.356;27.672;2023-05-24T06:18:03;9.77;;;7.63;;
58372;SDS011;44177;43.356;27.672;2023-05-24T06:20:29;9.32;;;7.22;;
58372;SDS011;44177;43.356;27.672;2023-05-24T06:22:54;9.80;;;7.47;;
58372;SDS011;44177;43.356;27.672;2023-05-24T06:25:21;7.78;;;6.85;;
58372;SDS011;44177;43.356;27.672;2023-05-24T06:27:48;9.50;;;7.10;;
58372;SDS011;44177;43.356;27.672;2023-05-24T06:30:15;10.13;;;7.40;;
58372;SDS011;44177;43.356;27.672;2023-05-24T06:32:40;9.00;;;6.90;;
58372;SDS011;44177;43.356;27.672;2023-05-24T06:35:06;8.65;;;6.75;;
58372;SDS011;44177;43.356;27.672;2023-05-24T06:37:32;9.20;;;7.05;;
58372;SDS011;44177;43.356;27.672;2023-05-24T06:39:57;8.93;;;6.80;;
58372;SDS011;44177;43.356;27.672;2023-05-24T06:42:23;8.50;;;6.57;;
58372;SDS011;44177;43.356;27.672;2023-05-24T06:44:48;8.48;;;7.38;;
58372;SDS011;44177;43.356;27.672;2023-05-24T06:47:14;8.00;;;6.93;;
58372;SDS011;44177;43.356;27.672;2023-05-24T06:49:39;8.07;;;7.28;;
58372;SDS011;44177;43.356;27.672;2023-05-24T06:52:06;11.70;;;7.40;;
58372;SDS011;44177;43.356;27.672;2023-05-24T06:54:32;8.18;;;7.00;;
58372;SDS011;44177;43.356;27.672;2023-05-24T06:56:57;9.88;;;7.70;;
58372;SDS011;44177;43.356;27.672;2023-05-24T06:59:23;9.88;;;6.53;;
58372;SDS011;44177;43.356;27.672;2023-05-24T07:01:48;9.02;;;6.20;;
58372;SDS011;44177;43.356;27.672;2023-05-24T07:04:17;9.75;;;6.65;;
58372;SDS011;44177;43.356;27.672;2023-05-24T07:06:43;7.80;;;6.20;;
58372;SDS011;44177;43.356;27.672;2023-05-24T07:09:09;8.30;;;6.38;;
58372;SDS011;44177;43.356;27.672;2023-05-24T07:11:35;10.60;;;6.45;;
58372;SDS011;44177;43.356;27.672;2023-05-24T07:14:00;10.32;;;5.72;;
58372;SDS011;44177;43.356;27.672;2023-05-24T07:16:26;8.63;;;5.85;;
58372;SDS011;44177;43.356;27.672;2023-05-24T07:18:52;7.28;;;5.22;;
58372;SDS011;44177;43.356;27.672;2023-05-24T07:21:18;6.75;;;5.10;;
58372;SDS011;44177;43.356;27.672;2023-05-24T07:23:44;8.68;;;4.80;;
58372;SDS011;44177;43.356;27.672;2023-05-24T07:26:10;7.40;;;4.55;;
58372;SDS011;44177;43.356;27.672;2023-05-24T07:28:36;6.45;;;4.35;;
58372;SDS011;44177;43.356;27.672;2023-05-24T07:31:04;5.15;;;3.58;;
58372;SDS011;44177;43.356;27.672;2023-05-24T07:33:30;4.38;;;3.50;;
58372;SDS011;44177;43.356;27.672;2023-05-24T07:35:55;6.03;;;4.20;;
58372;SDS011;44177;43.356;27.672;2023-05-24T07:38:22;5.40;;;3.88;;
58372;SDS011;44177;43.356;27.672;2023-05-24T07:40:47;7.22;;;3.55;;
58372;SDS011;44177;43.356;27.672;2023-05-24T07:43:13;5.00;;;3.33;;
58372;SDS011;44177;43.356;27.672;2023-05-24T07:45:38;6.38;;;3.75;;
58372;SDS011;44177;43.356;27.672;2023-05-24T07:48:04;7.10;;;3.42;;
58372;SDS011;44177;43.356;27.672;2023-05-24T07:50:30;4.53;;;4.05;;
58372;SDS011;44177;43.356;27.672;2023-05-24T07:52:55;4.85;;;3.90;;
58372;SDS011;44177;43.356;27.672;2023-05-24T07:55:21;5.95;;;3.45;;
58372;SDS011;44177;43.356;27.672;2023-05-24T07:57:47;3.95;;;3.30;;
58372;SDS011;44177;43.356;27.672;2023-05-24T08:00:12;5.18;;;3.40;;
58372;SDS011;44177;43.356;27.672;2023-05-24T08:02:39;5.28;;;2.97;;
58372;SDS011;44177;43.356;27.672;2023-05-24T08:05:06;4.60;;;3.10;;
58372;SDS011;44177;43.356;27.672;2023-05-24T08:07:33;5.68;;;3.00;;
58372;SDS011;44177;43.356;27.672;2023-05-24T08:09:59;9.30;;;3.35;;
58372;SDS011;44177;43.356;27.672;2023-05-24T08:12:24;5.88;;;3.55;;
58372;SDS011;44177;43.356;27.672;2023-05-24T08:14:50;6.13;;;3.50;;
58372;SDS011;44177;43.356;27.672;2023-05-24T08:17:15;5.10;;;3.08;;
58372;SDS011;44177;43.356;27.672;2023-05-24T08:19:41;5.13;;;3.22;;
58372;SDS011;44177;43.356;27.672;2023-05-24T08:22:06;8.05;;;3.10;;
58372;SDS011;44177;43.356;27.672;2023-05-24T08:24:32;8.30;;;3.10;;
58372;SDS011;44177;43.356;27.672;2023-05-24T08:26:58;4.70;;;2.65;;
58372;SDS011;44177;43.356;27.672;2023-05-24T08:29:23;5.80;;;2.88;;
58372;SDS011;44177;43.356;27.672;2023-05-24T08:31:49;4.10;;;2.97;;
58372;SDS011;44177;43.356;27.672;2023-05-24T08:34:14;4.75;;;2.83;;
58372;SDS011;44177;43.356;27.672;2023-05-24T08:36:40;3.65;;;2.50;;
58372;SDS011;44177;43.356;27.672;2023-05-24T08:39:07;7.55;;;2.97;;
58372;SDS011;44177;43.356;27.672;2023-05-24T08:41:33;8.55;;;3.22;;
58372;SDS011;44177;43.356;27.672;2023-05-24T08:44:01;5.15;;;2.78;;
58372;SDS011;44177;43.356;27.672;2023-05-24T08:46:31;4.50;;;3.13;;
58372;SDS011;44177;43.356;27.672;2023-05-24T08:48:59;5.82;;;2.97;;
58372;SDS011;44177;43.356;27.672;2023-05-24T08:51:27;6.85;;;3.30;;
58372;SDS011;44177;43.356;27.672;2023-05-24T08:53:54;8.02;;;3.15;;
58372;SDS011;44177;43.356;27.672;2023-05-24T08:56:22;4.28;;;2.70;;
58372;SDS011;44177;43.356;27.672;2023-05-24T08:58:50;6.63;;;2.72;;
58372;SDS011;44177;43.356;27.672;2023-05-24T09:01:16;4.22;;;3.20;;
58372;SDS011;44177;43.356;27.672;2023-05-24T09:03:42;5.05;;;2.90;;
58372;SDS011;44177;43.356;27.672;2023-05-24T09:06:10;5.80;;;3.60;;
58372;SDS011;44177;43.356;27.672;2023-05-24T09:08:37;2.80;;;2.50;;
58372;SDS011;44177;43.356;27.672;2023-05-24T09:11:04;3.13;;;2.50;;
58372;SDS011;44177;43.356;27.672;2023-05-24T09:13:32;5.93;;;2.70;;
58372;SDS011;44177;43.356;27.672;2023-05-24T09:15:59;3.65;;;2.60;;
58372;SDS011;44177;43.356;27.672;2023-05-24T09:18:25;8.20;;;3.38;;
58372;SDS011;44177;43.356;27.672;2023-05-24T09:20:51;7.35;;;3.40;;
58372;SDS011;44177;43.356;27.672;2023-05-24T09:23:16;3.50;;;2.75;;
58372;SDS011;44177;43.356;27.672;2023-05-24T09:25:45;6.85;;;3.35;;
58372;SDS011;44177;43.356;27.672;2023-05-24T09:28:13;5.13;;;2.72;;
58372;SDS011;44177;43.356;27.672;2023-05-24T09:30:43;5.10;;;2.83;;
58372;SDS011;44177;43.356;27.672;2023-05-24T09:33:10;7.18;;;3.10;;
58372;SDS011;44177;43.356;27.672;2023-05-24T09:35:40;4.68;;;3.05;;
58372;SDS011;44177;43.356;27.672;2023-05-24T09:38:14;6.15;;;3.75;;
58372;SDS011;44177;43.356;27.672;2023-05-24T09:40:42;4.85;;;3.40;;
58372;SDS011;44177;43.356;27.672;2023-05-24T09:43:08;4.03;;;3.33;;
58372;SDS011;44177;43.356;27.672;2023-05-24T09:45:41;5.47;;;3.03;;
58372;SDS011;44177;43.356;27.672;2023-05-24T09:48:13;5.15;;;3.08;;
58372;SDS011;44177;43.356;27.672;2023-05-24T09:50:43;7.20;;;3.42;;
58372;SDS011;44177;43.356;27.672;2023-05-24T09:53:11;4.70;;;2.90;;
58372;SDS011;44177;43.356;27.672;2023-05-24T09:55:37;6.50;;;3.33;;
58372;SDS011;44177;43.356;27.672;2023-05-24T10:00:31;7.95;;;2.88;;
58372;SDS011;44177;43.356;27.672;2023-05-24T10:03:03;4.15;;;2.90;;
58372;SDS011;44177;43.356;27.672;2023-05-24T10:05:35;10.05;;;3.17;;
58372;SDS011;44177;43.356;27.672;2023-05-24T10:08:01;10.25;;;6.00;;
58372;SDS011;44177;43.356;27.672;2023-05-24T10:10:29;9.15;;;5.80;;
58372;SDS011;44177;43.356;27.672;2023-05-24T10:12:56;48.42;;;7.88;;
58372;SDS011;44177;43.356;27.672;2023-05-24T10:15:23;19.65;;;7.35;;
58372;SDS011;44177;43.356;27.672;2023-05-24T10:17:50;12.25;;;7.38;;
58372;SDS011;44177;43.356;27.672;2023-05-24T10:20:16;15.02;;;7.32;;
58372;SDS011;44177;43.356;27.672;2023-05-24T10:22:43;10.05;;;6.50;;
58372;SDS011;44177;43.356;27.672;2023-05-24T10:25:19;10.73;;;7.10;;
58372;SDS011;44177;43.356;27.672;2023-05-24T10:27:47;9.43;;;6.20;;
58372;SDS011;44177;43.356;27.672;2023-05-24T10:33:06;7.60;;;6.15;;
58372;SDS011;44177;43.356;27.672;2023-05-24T10:35:33;7.70;;;5.97;;
58372;SDS011;44177;43.356;27.672;2023-05-24T10:38:05;10.65;;;6.55;;
58372;SDS011;44177;43.356;27.672;2023-05-24T10:40:31;8.98;;;5.70;;
58372;SDS011;44177;43.356;27.672;2023-05-24T10:42:57;7.85;;;5.43;;
58372;SDS011;44177;43.356;27.672;2023-05-24T10:47:49;7.65;;;5.55;;
58372;SDS011;44177;43.356;27.672;2023-05-24T10:50:18;12.80;;;6.97;;
58372;SDS011;44177;43.356;27.672;2023-05-24T10:52:45;11.60;;;7.00;;
58372;SDS011;44177;43.356;27.672;2023-05-24T10:55:12;11.77;;;7.10;;
58372;SDS011;44177;43.356;27.672;2023-05-24T10:57:38;11.70;;;7.10;;
58372;SDS011;44177;43.356;27.672;2023-05-24T11:02:57;11.30;;;7.93;;
58372;SDS011;44177;43.356;27.672;2023-05-24T11:05:34;9.93;;;7.13;;
58372;SDS011;44177;43.356;27.672;2023-05-24T11:08:00;21.08;;;8.45;;
58372;SDS011;44177;43.356;27.672;2023-05-24T11:10:31;9.55;;;6.97;;
58372;SDS011;44177;43.356;27.672;2023-05-24T11:13:00;8.80;;;7.80;;
58372;SDS011;44177;43.356;27.672;2023-05-24T11:15:26;13.98;;;7.72;;
58372;SDS011;44177;43.356;27.672;2023-05-24T11:20:37;11.98;;;7.72;;
58372;SDS011;44177;43.356;27.672;2023-05-24T11:23:06;8.82;;;7.25;;
58372;SDS011;44177;43.356;27.672;2023-05-24T11:25:35;9.43;;;7.15;;
58372;SDS011;44177;43.356;27.672;2023-05-24T11:28:02;14.70;;;6.88;;
58372;SDS011;44177;43.356;27.672;2023-05-24T11:30:37;8.30;;;5.90;;
58372;SDS011;44177;43.356;27.672;2023-05-24T11:33:13;7.10;;;6.20;;
58372;SDS011;44177;43.356;27.672;2023-05-24T11:35:43;9.43;;;5.10;;
58372;SDS011;44177;43.356;27.672;2023-05-24T11:38:15;7.50;;;5.45;;
58372;SDS011;44177;43.356;27.672;2023-05-24T11:40:41;9.13;;;5.53;;
58372;SDS011;44177;43.356;27.672;2023-05-24T11:43:11;6.85;;;5.05;;
58372;SDS011;44177;43.356;27.672;2023-05-24T11:45:40;8.95;;;5.57;;
58372;SDS011;44177;43.356;27.672;2023-05-24T11:48:07;10.15;;;5.80;;
58372;SDS011;44177;43.356;27.672;2023-05-24T11:50:37;6.13;;;4.60;;
58372;SDS011;44177;43.356;27.672;2023-05-24T11:53:03;8.57;;;4.88;;
58372;SDS011;44177;43.356;27.672;2023-05-24T11:55:29;7.20;;;4.25;;
58372;SDS011;44177;43.356;27.672;2023-05-24T11:57:57;8.02;;;4.47;;
58372;SDS011;44177;43.356;27.672;2023-05-24T12:00:24;4.50;;;4.00;;
58372;SDS011;44177;43.356;27.672;2023-05-24T12:02:50;8.77;;;4.10;;
58372;SDS011;44177;43.356;27.672;2023-05-24T12:05:17;6.45;;;3.90;;
58372;SDS011;44177;43.356;27.672;2023-05-24T12:07:43;7.78;;;4.40;;
58372;SDS011;44177;43.356;27.672;2023-05-24T12:10:15;7.40;;;4.07;;
58372;SDS011;44177;43.356;27.672;2023-05-24T12:12:45;8.65;;;4.28;;
58372;SDS011;44177;43.356;27.672;2023-05-24T12:15:11;5.03;;;3.83;;
58372;SDS011;44177;43.356;27.672;2023-05-24T12:17:38;7.63;;;4.28;;
58372;SDS011;44177;43.356;27.672;2023-05-24T12:20:05;6.80;;;4.32;;
58372;SDS011;44177;43.356;27.672;2023-05-24T12:22:32;7.05;;;4.10;;
58372;SDS011;44177;43.356;27.672;2023-05-24T12:24:58;8.40;;;4.07;;
58372;SDS011;44177;43.356;27.672;2023-05-24T12:27:26;6.85;;;4.00;;
58372;SDS011;44177;43.356;27.672;2023-05-24T12:29:54;6.50;;;3.97;;
58372;SDS011;44177;43.356;27.672;2023-05-24T12:32:20;4.05;;;3.75;;
58372;SDS011;44177;43.356;27.672;2023-05-24T12:34:47;7.25;;;3.72;;
58372;SDS011;44177;43.356;27.672;2023-05-24T12:37:13;7.00;;;4.15;;
58372;SDS011;44177;43.356;27.672;2023-05-24T12:39:39;7.45;;;3.80;;
58372;SDS011;44177;43.356;27.672;2023-05-24T12:42:06;6.35;;;3.58;;
58372;SDS011;44177;43.356;27.672;2023-05-24T12:44:33;5.82;;;3.55;;
58372;SDS011;44177;43.356;27.672;2023-05-24T12:47:00;4.80;;;3.97;;
58372;SDS011;44177;43.356;27.672;2023-05-24T12:49:26;5.38;;;3.78;;
58372;SDS011;44177;43.356;27.672;2023-05-24T12:51:53;5.88;;;3.65;;
58372;SDS011;44177;43.356;27.672;2023-05-24T12:54:21;7.88;;;4.00;;
58372;SDS011;44177;43.356;27.672;2023-05-24T12:56:48;5.20;;;3.70;;
58372;SDS011;44177;43.356;27.672;2023-05-24T12:59:14;5.20;;;4.10;;
58372;SDS011;44177;43.356;27.672;2023-05-24T13:01:40;4.70;;;3.53;;
58372;SDS011;44177;43.356;27.672;2023-05-24T13:04:05;7.05;;;3.53;;
58372;SDS011;44177;43.356;27.672;2023-05-24T13:06:31;5.72;;;3.75;;
58372;SDS011;44177;43.356;27.672;2023-05-24T13:08:56;6.65;;;3.40;;
58372;SDS011;44177;43.356;27.672;2023-05-24T13:11:22;4.75;;;3.65;;
58372;SDS011;44177;43.356;27.672;2023-05-24T13:13:49;8.95;;;3.70;;
58372;SDS011;44177;43.356;27.672;2023-05-24T13:16:15;6.10;;;3.58;;
58372;SDS011;44177;43.356;27.672;2023-05-24T13:18:41;5.07;;;3.33;;
58372;SDS011;44177;43.356;27.672;2023-05-24T13:21:06;6.05;;;3.42;;
58372;SDS011;44177;43.356;27.672;2023-05-24T13:23:33;7.03;;;3.55;;
58372;SDS011;44177;43.356;27.672;2023-05-24T13:26:01;4.45;;;3.47;;
58372;SDS011;44177;43.356;27.672;2023-05-24T13:28:28;6.25;;;3.40;;
58372;SDS011;44177;43.356;27.672;2023-05-24T13:30:54;5.93;;;3.42;;
58372;SDS011;44177;43.356;27.672;2023-05-24T13:33:19;5.72;;;3.60;;
58372;SDS011;44177;43.356;27.672;2023-05-24T13:35:45;5.18;;;3.38;;
58372;SDS011;44177;43.356;27.672;2023-05-24T13:38:11;8.98;;;2.85;;
58372;SDS011;44177;43.356;27.672;2023-05-24T13:40:36;4.80;;;3.30;;
58372;SDS011;44177;43.356;27.672;2023-05-24T13:43:03;5.30;;;3.50;;
58372;SDS011;44177;43.356;27.672;2023-05-24T13:45:29;3.78;;;3.35;;
58372;SDS011;44177;43.356;27.672;2023-05-24T13:47:57;6.70;;;3.50;;
58372;SDS011;44177;43.356;27.672;2023-05-24T13:50:28;4.30;;;3.35;;
58372;SDS011;44177;43.356;27.672;2023-05-24T13:52:56;5.75;;;3.60;;
58372;SDS011;44177;43.356;27.672;2023-05-24T13:55:22;4.63;;;3.78;;
58372;SDS011;44177;43.356;27.672;2023-05-24T13:57:48;5.80;;;4.00;;
58372;SDS011;44177;43.356;27.672;2023-05-24T14:00:13;5.55;;;4.25;;
58372;SDS011;44177;43.356;27.672;2023-05-24T14:02:39;8.40;;;4.88;;
58372;SDS011;44177;43.356;27.672;2023-05-24T14:05:05;7.05;;;4.35;;
58372;SDS011;44177;43.356;27.672;2023-05-24T14:07:31;6.47;;;4.38;;
58372;SDS011;44177;43.356;27.672;2023-05-24T14:09:56;6.45;;;4.45;;
58372;SDS011;44177;43.356;27.672;2023-05-24T14:12:22;5.57;;;4.38;;
58372;SDS011;44177;43.356;27.672;2023-05-24T14:14:48;7.78;;;5.32;;
58372;SDS011;44177;43.356;27.672;2023-05-24T14:17:13;5.50;;;4.53;;
58372;SDS011;44177;43.356;27.672;2023-05-24T14:19:39;6.70;;;4.32;;
58372;SDS011;44177;43.356;27.672;2023-05-24T14:22:05;10.23;;;4.32;;
58372;SDS011;44177;43.356;27.672;2023-05-24T14:24:31;7.03;;;4.72;;
58372;SDS011;44177;43.356;27.672;2023-05-24T14:26:56;5.30;;;4.70;;
58372;SDS011;44177;43.356;27.672;2023-05-24T14:29:22;8.85;;;5.25;;
58372;SDS011;44177;43.356;27.672;2023-05-24T14:31:47;6.97;;;5.40;;
58372;SDS011;44177;43.356;27.672;2023-05-24T14:34:13;7.22;;;4.68;;
58372;SDS011;44177;43.356;27.672;2023-05-24T14:36:39;8.30;;;5.40;;
58372;SDS011;44177;43.356;27.672;2023-05-24T14:39:06;7.20;;;4.78;;
58372;SDS011;44177;43.356;27.672;2023-05-24T14:41:32;6.60;;;5.57;;
58372;SDS011;44177;43.356;27.672;2023-05-24T14:43:58;8.52;;;4.70;;
58372;SDS011;44177;43.356;27.672;2023-05-24T14:46:24;7.63;;;5.07;;
58372;SDS011;44177;43.356;27.672;2023-05-24T14:48:49;8.88;;;5.57;;
58372;SDS011;44177;43.356;27.672;2023-05-24T14:51:15;12.43;;;5.63;;
58372;SDS011;44177;43.356;27.672;2023-05-24T14:53:40;6.97;;;5.22;;
58372;SDS011;44177;43.356;27.672;2023-05-24T14:56:05;7.82;;;5.75;;